Maldives Meteorological Service

METAR

Station
VRMM
METAR VRMM 211200Z 24006KT 9999 FEW018TCU 31/26 Q1006 NOSIG=
VRMH
METAR VRMH 211200Z 27009KT 9999 SCT017 FEW018CB BKN120 30/26 Q1006 CB N,NE,ENE,WNW=
VRMK
METAR VRMK 211200Z 23005KT 9999 FEW018 BKN270 31/25 Q1006=
VRMT
METAR VRMT 211200Z 23007KT 9999 FEW018 BKN270 30/26 Q1006=
VRMG
METAR VRMG 211200Z 19005KT 9999 FEW018 BKN270 29/25 Q1006 NOSIG=
Last Updated : 2017-08-21 17:00:12

SPECI

Station
VRMM
VRMH
VRMK
VRMT
VRMG
Last Updated : 2017-08-21 17:00:12